createdAt,value
2022-08-03T00:02:34.409Z,56.02
2022-08-03T00:05:37.635Z,55.12
2022-08-03T00:08:40.511Z,55.06
2022-08-03T00:11:43.625Z,55.51
2022-08-03T00:14:46.433Z,55.09
2022-08-03T00:17:53.408Z,54.97
2022-08-03T00:20:56.824Z,55.11
2022-08-03T00:23:59.975Z,55.18
2022-08-03T00:27:02.792Z,55.80
2022-08-03T00:30:06.788Z,55.85
2022-08-03T00:33:10.839Z,56.06
2022-08-03T00:36:13.939Z,56.40
2022-08-03T00:39:18.191Z,56.37
2022-08-03T00:42:21.382Z,56.42
2022-08-03T00:45:35.254Z,56.17
2022-08-03T00:48:38.358Z,56.76
2022-08-03T00:51:41.306Z,56.46
2022-08-03T00:54:44.443Z,55.94
2022-08-03T00:57:48.472Z,56.36
2022-08-03T01:00:52.025Z,56.52
2022-08-03T01:03:54.835Z,57.71
2022-08-03T01:07:11.227Z,57.91
2022-08-03T01:10:17.086Z,58.32
2022-08-03T01:14:04.663Z,57.78
2022-08-03T01:17:49.081Z,57.74
2022-08-03T01:20:56.582Z,57.59
2022-08-03T01:24:50.253Z,57.71
2022-08-03T01:28:25.133Z,57.70
2022-08-03T01:33:00.248Z,59.35
2022-08-03T01:35:38.838Z,59.89
2022-08-03T01:38:47.649Z,59.74
2022-08-03T01:41:59.413Z,59.37
2022-08-03T01:45:05.636Z,60.60
2022-08-03T01:48:12.363Z,60.77
2022-08-03T01:51:18.395Z,61.35
2022-08-03T01:54:24.944Z,61.14
2022-08-03T01:57:30.743Z,60.94
2022-08-03T02:00:38.726Z,60.69
2022-08-03T02:04:00.883Z,60.34
2022-08-03T02:07:04.514Z,59.89
2022-08-03T02:10:09.395Z,59.35
2022-08-03T02:13:14.311Z,58.77
2022-08-03T02:16:19.421Z,59.47
2022-08-03T02:19:25.083Z,60.00
2022-08-03T02:22:29.995Z,60.11
2022-08-03T02:25:38.994Z,60.31
2022-08-03T02:28:45.786Z,60.26
2022-08-03T02:31:50.767Z,60.15
2022-08-03T02:34:58.080Z,60.34
2022-08-03T02:38:04.093Z,60.65
2022-08-03T02:41:12.576Z,60.57
2022-08-03T02:44:18.583Z,61.05
2022-08-03T02:47:23.098Z,61.24
2022-08-03T02:50:28.305Z,61.39
2022-08-03T02:53:33.500Z,61.61
2022-08-03T02:56:38.308Z,61.66
2022-08-03T02:59:44.024Z,62.03
2022-08-03T03:02:47.989Z,62.26
2022-08-03T03:05:56.699Z,62.41
2022-08-03T03:09:01.604Z,62.37
2022-08-03T03:12:08.167Z,62.44
2022-08-03T03:15:11.169Z,62.54
2022-08-03T03:18:18.956Z,62.96
2022-08-03T03:21:26.170Z,63.69
2022-08-03T03:24:30.166Z,64.01
2022-08-03T03:27:34.215Z,64.33
2022-08-03T03:30:37.645Z,64.23
2022-08-03T03:33:40.658Z,64.58
2022-08-03T03:36:43.780Z,64.02
2022-08-03T03:39:46.688Z,64.03
2022-08-03T03:42:50.939Z,63.71
2022-08-03T03:45:55.859Z,63.32
2022-08-03T03:48:59.785Z,63.40
2022-08-03T03:52:08.878Z,63.54
2022-08-03T03:55:18.346Z,63.32
2022-08-03T03:58:22.052Z,63.30
2022-08-03T04:01:28.767Z,63.24
2022-08-03T04:04:52.095Z,63.56
2022-08-03T04:08:15.020Z,63.30
2022-08-03T04:11:36.828Z,63.22
2022-08-03T04:14:41.096Z,63.12
2022-08-03T04:17:45.158Z,62.71
2022-08-03T04:20:50.298Z,62.61
2022-08-03T04:23:58.797Z,62.28
2022-08-03T04:27:05.124Z,62.51
2022-08-03T04:30:09.604Z,62.25
2022-08-03T04:33:12.602Z,62.37
2022-08-03T04:36:20.560Z,62.38
2022-08-03T04:39:32.190Z,62.34
2022-08-03T04:42:37.760Z,61.75
2022-08-03T04:45:41.739Z,61.41
2022-08-03T04:48:46.307Z,60.69
2022-08-03T04:51:50.190Z,59.75
2022-08-03T04:54:53.384Z,59.81
2022-08-03T04:57:57.351Z,59.61
2022-08-03T05:01:00.704Z,58.93
2022-08-03T05:04:04.172Z,58.15
2022-08-03T05:07:11.741Z,57.88
2022-08-03T05:10:17.531Z,57.70
2022-08-03T05:13:20.664Z,58.09
2022-08-03T05:16:25.817Z,58.64
2022-08-03T05:19:29.123Z,58.69
2022-08-03T05:22:31.878Z,58.17
2022-08-03T05:25:35.104Z,57.16
2022-08-03T05:28:38.715Z,57.53
2022-08-03T05:31:41.857Z,56.98
2022-08-03T05:34:44.883Z,56.38
2022-08-03T05:37:54.474Z,56.05
2022-08-03T05:41:22.327Z,56.39
2022-08-03T05:44:22.182Z,56.02
2022-08-03T05:47:24.994Z,56.04
2022-08-03T05:50:28.214Z,55.36
2022-08-03T05:53:34.224Z,55.11
2022-08-03T05:56:37.412Z,54.32
2022-08-03T05:59:40.305Z,53.87
2022-08-03T06:02:58.058Z,53.59
2022-08-03T06:06:01.187Z,52.69
2022-08-03T06:09:04.107Z,51.92
2022-08-03T06:12:10.091Z,51.57
2022-08-03T06:15:16.633Z,51.23
2022-08-03T06:18:20.233Z,49.79
2022-08-03T06:21:22.983Z,50.41
2022-08-03T06:24:26.190Z,50.59
2022-08-03T06:27:36.447Z,50.31
2022-08-03T06:30:41.674Z,50.33
2022-08-03T06:34:31.477Z,49.67
2022-08-03T06:37:07.654Z,49.33
2022-08-03T06:40:13.987Z,48.47
2022-08-03T06:43:17.185Z,47.66
2022-08-03T06:46:20.786Z,47.68
2022-08-03T06:49:23.995Z,48.76
2022-08-03T06:52:37.557Z,48.22
2022-08-03T06:55:42.534Z,47.18
2022-08-03T06:58:47.053Z,46.95
2022-08-03T07:01:50.209Z,46.48
2022-08-03T07:04:53.060Z,46.02
2022-08-03T07:08:01.927Z,46.00
2022-08-03T07:11:04.784Z,46.01
2022-08-03T07:14:07.894Z,46.81
2022-08-03T07:17:11.668Z,45.97
2022-08-03T07:20:17.467Z,45.31
2022-08-03T07:23:20.255Z,45.06
2022-08-03T07:26:23.402Z,44.32
2022-08-03T07:29:26.270Z,43.18
2022-08-03T07:32:31.701Z,42.24
2022-08-03T07:35:34.774Z,42.27
2022-08-03T07:38:38.066Z,42.15
2022-08-03T07:41:40.875Z,41.45
2022-08-03T07:44:45.050Z,40.36
2022-08-03T07:47:53.408Z,39.43
2022-08-03T07:50:57.377Z,39.42
2022-08-03T07:54:01.014Z,38.16
2022-08-03T07:57:04.332Z,38.98
2022-08-03T08:00:14.090Z,38.47
2022-08-03T08:03:17.744Z,35.81
2022-08-03T08:06:21.748Z,37.71
2022-08-03T08:09:25.665Z,37.09
2022-08-03T08:12:31.900Z,37.06
2022-08-03T08:15:34.974Z,34.98
2022-08-03T08:18:37.820Z,33.89
2022-08-03T08:21:53.429Z,33.54
2022-08-03T08:25:04.515Z,34.85
2022-08-03T08:28:29.417Z,35.84
2022-08-03T08:31:30.463Z,35.49
2022-08-03T08:34:33.557Z,35.09
2022-08-03T08:37:36.540Z,34.53
2022-08-03T08:40:40.646Z,34.46
2022-08-03T08:43:43.804Z,35.07
2022-08-03T08:46:48.257Z,34.47
2022-08-03T08:50:09.397Z,34.40
2022-08-03T08:53:17.515Z,34.58
2022-08-03T08:56:25.768Z,34.10
2022-08-03T08:59:47.676Z,33.85
2022-08-03T09:02:51.473Z,33.91
2022-08-03T09:05:56.329Z,32.98
2022-08-03T09:08:59.366Z,32.83
2022-08-03T09:12:28.136Z,32.35
2022-08-03T09:15:33.706Z,32.15
2022-08-03T09:18:36.905Z,32.57
2022-08-03T09:21:40.553Z,32.13
2022-08-03T09:25:21.689Z,32.39
2022-08-03T09:28:52.861Z,31.99
2022-08-03T09:31:46.995Z,32.16
2022-08-03T09:34:55.316Z,32.28
2022-08-03T09:38:15.519Z,32.08
2022-08-03T09:41:19.414Z,31.17
2022-08-03T09:44:35.949Z,31.21
2022-08-03T09:47:44.842Z,30.42
2022-08-03T09:50:58.623Z,30.21
2022-08-03T09:54:20.316Z,30.25
2022-08-03T09:57:25.456Z,29.63
2022-08-03T10:00:28.793Z,29.37
2022-08-03T10:03:36.254Z,29.59
2022-08-03T10:07:09.949Z,28.89
2022-08-03T10:10:31.406Z,28.39
2022-08-03T10:13:36.357Z,29.25
2022-08-03T10:16:40.598Z,29.45
2022-08-03T10:19:43.420Z,29.88
2022-08-03T10:22:47.871Z,30.25
2022-08-03T10:25:55.984Z,30.79
2022-08-03T10:29:01.564Z,30.62
2022-08-03T10:32:10.692Z,32.22
2022-08-03T10:35:20.076Z,32.12
2022-08-03T10:38:32.830Z,32.17
2022-08-03T10:41:40.179Z,32.87
2022-08-03T10:44:42.984Z,32.92
2022-08-03T10:47:48.544Z,32.77
2022-08-03T10:50:52.643Z,33.03
2022-08-03T10:53:55.886Z,32.98
2022-08-03T10:57:17.363Z,32.91
2022-08-03T11:00:27.131Z,32.83
2022-08-03T11:03:33.495Z,32.73
2022-08-03T11:06:37.563Z,31.16
2022-08-03T11:09:48.851Z,30.49
2022-08-03T11:13:05.740Z,29.99
2022-08-03T11:16:22.006Z,29.23
2022-08-03T11:19:57.265Z,28.84
2022-08-03T11:23:01.839Z,28.65
2022-08-03T11:26:16.843Z,27.54
2022-08-03T11:29:30.656Z,28.09
2022-08-03T11:32:48.187Z,27.13
2022-08-03T11:36:02.268Z,26.28
2022-08-03T11:39:16.532Z,26.76
2022-08-03T11:42:23.158Z,27.63
2022-08-03T11:45:26.669Z,27.02
2022-08-03T11:48:38.631Z,28.18
2022-08-03T11:51:41.977Z,28.20
2022-08-03T11:54:45.198Z,28.71
2022-08-03T11:59:16.499Z,27.48
2022-08-03T12:01:12.606Z,27.26
2022-08-03T12:04:16.489Z,26.52
2022-08-03T12:08:02.649Z,26.54
2022-08-03T12:10:50.259Z,25.86
2022-08-03T12:14:44.208Z,26.44
2022-08-03T12:17:16.330Z,26.94
2022-08-03T12:20:31.483Z,27.62
2022-08-03T12:23:39.858Z,27.73
2022-08-03T12:26:59.187Z,27.56
2022-08-03T12:30:05.135Z,27.38
2022-08-03T12:33:26.361Z,27.46
2022-08-03T12:36:32.242Z,27.41
2022-08-03T12:39:35.068Z,27.89
2022-08-03T12:42:40.137Z,28.73
2022-08-03T12:45:43.082Z,28.64
2022-08-03T12:49:04.462Z,28.64
2022-08-03T12:52:08.931Z,27.51
2022-08-03T12:55:20.813Z,27.08
2022-08-03T12:58:35.250Z,27.32
2022-08-03T13:01:38.634Z,27.32
2022-08-03T13:04:59.517Z,27.20
2022-08-03T13:08:02.739Z,26.80
2022-08-03T13:11:52.502Z,26.72
2022-08-03T13:14:51.963Z,27.34
2022-08-03T13:17:56.436Z,27.56
2022-08-03T13:21:00.426Z,27.53
2022-08-03T13:24:03.407Z,27.46
2022-08-03T13:28:03.188Z,27.16
2022-08-03T13:30:36.154Z,26.66
2022-08-03T13:33:40.556Z,27.52
2022-08-03T13:37:08.097Z,27.50
2022-08-03T13:40:08.599Z,27.69
2022-08-03T13:43:14.578Z,27.41
2022-08-03T13:46:17.875Z,27.17
2022-08-03T13:49:20.685Z,26.74
2022-08-03T13:52:23.720Z,26.11
2022-08-03T13:55:26.603Z,25.33
2022-08-03T13:58:29.680Z,25.32
2022-08-03T14:01:53.988Z,25.09
2022-08-03T14:04:55.768Z,24.81
2022-08-03T14:07:58.601Z,25.13
2022-08-03T14:11:08.164Z,25.64
2022-08-03T14:14:11.975Z,26.04
2022-08-03T14:17:16.328Z,24.99
2022-08-03T14:20:38.458Z,24.75
2022-08-03T14:23:42.633Z,24.45
2022-08-03T14:26:47.518Z,24.26
2022-08-03T14:29:50.732Z,24.28
2022-08-03T14:32:55.951Z,24.14
2022-08-03T14:36:02.332Z,24.22
2022-08-03T14:39:05.825Z,25.01
2022-08-03T14:42:09.008Z,25.30
2022-08-03T14:45:20.129Z,25.37
2022-08-03T14:50:32.848Z,24.77
2022-08-03T14:51:53.381Z,24.90
2022-08-03T14:54:57.393Z,24.71
2022-08-03T14:58:02.997Z,24.18
2022-08-03T15:02:02.271Z,24.91
2022-08-03T15:04:30.394Z,25.12
2022-08-03T15:07:33.623Z,25.27
2022-08-03T15:10:40.450Z,25.59
2022-08-03T15:13:52.441Z,25.33
2022-08-03T15:16:55.316Z,25.85
2022-08-03T15:20:04.061Z,25.77
2022-08-03T15:23:20.095Z,26.14
2022-08-03T15:26:33.047Z,26.35
2022-08-03T15:30:07.398Z,25.98
2022-08-03T15:33:02.074Z,25.88
2022-08-03T15:36:05.097Z,26.46
2022-08-03T15:39:08.336Z,26.41
2022-08-03T15:42:11.168Z,26.44
2022-08-03T15:45:14.321Z,26.54
2022-08-03T15:48:26.516Z,27.79
2022-08-03T15:51:30.064Z,29.67
2022-08-03T15:54:32.880Z,29.46
2022-08-03T15:59:11.070Z,30.58
2022-08-03T16:01:02.352Z,30.48
2022-08-03T16:04:05.633Z,30.76
2022-08-03T16:07:12.590Z,31.16
2022-08-03T16:10:17.781Z,30.79
2022-08-03T16:13:20.620Z,29.95
2022-08-03T16:16:23.828Z,29.28
2022-08-03T16:19:26.660Z,28.81
2022-08-03T16:22:29.848Z,28.73
2022-08-03T16:25:32.908Z,29.11
2022-08-03T16:28:38.814Z,28.85
2022-08-03T16:31:51.143Z,28.83
2022-08-03T16:34:54.654Z,29.11
2022-08-03T16:37:57.982Z,29.21
2022-08-03T16:41:01.299Z,29.21
2022-08-03T16:44:08.030Z,29.19
2022-08-03T16:47:21.704Z,29.58
2022-08-03T16:50:25.439Z,29.89
2022-08-03T16:53:33.249Z,30.00
2022-08-03T16:56:51.600Z,30.98
2022-08-03T16:59:55.623Z,31.72
2022-08-03T17:03:04.034Z,31.94
2022-08-03T17:06:08.546Z,32.98
2022-08-03T17:09:19.171Z,33.47
2022-08-03T17:12:26.974Z,34.34
2022-08-03T17:15:38.342Z,34.43
2022-08-03T17:18:57.749Z,34.49
2022-08-03T17:22:12.123Z,34.80
2022-08-03T17:25:22.055Z,35.32
2022-08-03T17:28:57.172Z,35.71
2022-08-03T17:32:11.271Z,36.49
2022-08-03T17:35:16.029Z,36.74
2022-08-03T17:38:25.058Z,36.81
2022-08-03T17:41:38.069Z,36.97
2022-08-03T17:44:54.769Z,37.21
2022-08-03T17:47:59.099Z,37.41
2022-08-03T17:51:27.367Z,37.81
2022-08-03T17:58:21.010Z,38.50
2022-08-03T18:02:30.324Z,38.92
2022-08-03T18:06:10.366Z,39.35
2022-08-03T18:09:00.015Z,39.48
2022-08-03T18:12:18.649Z,40.16
2022-08-03T18:15:49.285Z,40.52
2022-08-03T18:18:54.815Z,41.04
2022-08-03T18:22:03.303Z,41.23
2022-08-03T18:25:08.287Z,41.39
2022-08-03T18:28:14.131Z,41.57
2022-08-03T18:31:59.455Z,41.94
2022-08-03T18:34:53.348Z,42.25
2022-08-03T18:37:59.001Z,42.41
2022-08-03T18:41:07.039Z,42.73
2022-08-03T18:44:37.484Z,43.14
2022-08-03T18:47:52.392Z,43.23
2022-08-03T18:51:06.798Z,43.53
2022-08-03T18:54:53.399Z,43.21
2022-08-03T18:57:55.572Z,43.65
2022-08-03T19:01:59.859Z,44.27
2022-08-03T19:04:44.274Z,44.71
2022-08-03T19:07:59.768Z,44.87
2022-08-03T19:11:07.945Z,45.19
2022-08-03T19:14:17.586Z,45.72
2022-08-03T19:17:22.767Z,46.10
2022-08-03T19:20:35.001Z,46.41
2022-08-03T19:23:38.530Z,46.53
2022-08-03T19:26:43.733Z,46.37
2022-08-03T19:29:58.384Z,46.50
2022-08-03T19:33:16.167Z,46.67
2022-08-03T19:36:26.265Z,47.01
2022-08-03T19:39:31.691Z,47.36
2022-08-03T19:42:40.944Z,47.95
2022-08-03T19:46:05.043Z,48.26
2022-08-03T19:49:15.839Z,48.50
2022-08-03T19:52:24.160Z,48.66
2022-08-03T19:55:29.974Z,49.54
2022-08-03T19:58:35.689Z,50.04
2022-08-03T20:01:50.969Z,50.17
2022-08-03T20:04:55.805Z,50.33
2022-08-03T20:08:05.256Z,50.26
2022-08-03T20:11:10.597Z,50.15
2022-08-03T20:14:20.732Z,50.37
2022-08-03T20:17:54.101Z,50.48
2022-08-03T20:20:54.672Z,50.54
2022-08-03T20:24:23.745Z,50.58
2022-08-03T20:27:30.824Z,50.99
2022-08-03T20:30:34.636Z,50.98
2022-08-03T20:37:00.686Z,50.81
2022-08-03T20:40:06.196Z,51.01
2022-08-03T20:43:10.081Z,51.14
2022-08-03T20:46:38.255Z,51.19
2022-08-03T20:49:46.171Z,51.33
2022-08-03T20:52:50.531Z,51.53
2022-08-03T20:56:02.651Z,51.83
2022-08-03T20:59:07.264Z,51.96
2022-08-03T21:02:30.173Z,52.24
2022-08-03T21:05:51.290Z,52.33
2022-08-03T21:09:04.229Z,52.35
2022-08-03T21:12:12.999Z,52.46
2022-08-03T21:13:05.102Z,38.22
2022-08-03T21:13:13.904Z,50.83
2022-08-03T21:16:03.144Z,52.64
2022-08-03T21:18:51.572Z,53.38
2022-08-03T21:21:55.821Z,52.92
2022-08-03T21:25:04.047Z,52.92
2022-08-03T21:28:08.050Z,52.63
2022-08-03T21:31:11.602Z,52.87
2022-08-03T21:34:15.365Z,53.04
2022-08-03T21:37:18.168Z,53.38
2022-08-03T21:40:21.658Z,53.89
2022-08-03T21:43:24.725Z,54.11
2022-08-03T21:46:34.031Z,54.20
2022-08-03T21:50:04.432Z,54.16
2022-08-03T21:53:01.013Z,54.33
2022-08-03T21:56:08.987Z,54.50
2022-08-03T21:59:20.053Z,54.52
2022-08-03T22:02:31.291Z,54.59
2022-08-03T22:05:44.022Z,54.99
2022-08-03T22:08:48.118Z,55.04
2022-08-03T22:11:54.275Z,55.04
2022-08-03T22:15:00.311Z,54.98
2022-08-03T22:18:06.347Z,55.04
2022-08-03T22:21:15.446Z,55.26
2022-08-03T22:24:23.980Z,56.26
2022-08-03T22:27:31.617Z,55.88
2022-08-03T22:30:35.258Z,55.64
2022-08-03T22:33:38.551Z,55.63
2022-08-03T22:36:42.486Z,55.72
2022-08-03T22:39:45.486Z,55.60
2022-08-03T22:42:52.579Z,55.56
2022-08-03T22:46:10.275Z,55.34
2022-08-03T22:49:16.717Z,55.44
2022-08-03T22:52:20.392Z,55.41
2022-08-03T22:55:24.957Z,55.68
2022-08-03T22:58:27.941Z,55.91
2022-08-03T23:01:36.836Z,55.62
2022-08-03T23:04:42.466Z,55.79
2022-08-03T23:07:45.800Z,55.84
2022-08-03T23:10:51.094Z,55.81
2022-08-03T23:13:58.930Z,55.69
2022-08-03T23:17:05.007Z,55.73
2022-08-03T23:20:09.202Z,55.75
2022-08-03T23:23:12.652Z,56.03
2022-08-03T23:26:18.003Z,56.18
2022-08-03T23:29:22.097Z,56.29
2022-08-03T23:32:30.677Z,56.45
2022-08-03T23:36:28.015Z,56.98
2022-08-03T23:39:22.639Z,57.22
2022-08-03T23:42:26.215Z,57.02
2022-08-03T23:45:34.839Z,57.07
2022-08-03T23:48:37.733Z,57.27
2022-08-03T23:52:01.958Z,57.50
2022-08-03T23:55:25.780Z,57.68
2022-08-03T23:58:54.566Z,58.08
